createdAt,value
2023-05-16T00:01:47.664Z,60.50
2023-05-16T00:04:19.668Z,60.87
2023-05-16T00:06:49.718Z,61.11
2023-05-16T00:09:17.964Z,61.43
2023-05-16T00:11:47.791Z,62.00
2023-05-16T00:14:18.764Z,61.96
2023-05-16T00:16:47.395Z,62.18
2023-05-16T00:19:16.912Z,62.20
2023-05-16T00:21:46.667Z,62.38
2023-05-16T00:24:16.373Z,62.54
2023-05-16T00:26:49.675Z,62.54
2023-05-16T00:29:19.468Z,62.97
2023-05-16T00:31:47.557Z,63.15
2023-05-16T00:34:15.951Z,62.95
2023-05-16T00:36:43.962Z,63.59
2023-05-16T00:39:12.237Z,64.49
2023-05-16T00:41:44.087Z,64.42
2023-05-16T00:44:14.165Z,64.95
2023-05-16T00:46:42.746Z,64.59
2023-05-16T00:49:11.589Z,64.92
2023-05-16T00:51:42.058Z,65.03
2023-05-16T00:54:13.512Z,65.60
2023-05-16T00:56:42.912Z,65.09
2023-05-16T00:59:11.907Z,65.10
2023-05-16T01:01:50.669Z,64.83
2023-05-16T01:04:20.368Z,65.54
2023-05-16T01:06:49.108Z,65.40
2023-05-16T01:09:17.256Z,66.18
2023-05-16T01:12:21.094Z,66.20
2023-05-16T01:15:18.460Z,66.39
2023-05-16T01:18:14.515Z,66.39
2023-05-16T01:20:57.317Z,66.73
2023-05-16T01:24:03.903Z,66.75
2023-05-16T01:26:37.159Z,66.55
2023-05-16T01:29:05.673Z,66.31
2023-05-16T01:31:33.684Z,66.79
2023-05-16T01:34:12.935Z,66.62
2023-05-16T01:37:17.053Z,67.10
2023-05-16T01:39:54.088Z,67.19
2023-05-16T01:42:26.713Z,67.17
2023-05-16T01:45:18.687Z,67.16
2023-05-16T01:47:58.981Z,67.30
2023-05-16T01:50:32.098Z,67.31
2023-05-16T01:53:09.030Z,67.19
2023-05-16T01:55:46.373Z,67.79
2023-05-16T01:58:16.964Z,68.12
2023-05-16T02:00:45.306Z,67.85
2023-05-16T02:03:17.676Z,68.31
2023-05-16T02:05:48.512Z,67.98
2023-05-16T02:08:16.773Z,68.06
2023-05-16T02:10:44.869Z,68.39
2023-05-16T02:13:16.535Z,68.11
2023-05-16T02:15:45.184Z,67.97
2023-05-16T02:18:15.109Z,68.22
2023-05-16T02:20:44.638Z,68.51
2023-05-16T02:23:13.034Z,69.17
2023-05-16T02:25:42.295Z,69.92
2023-05-16T02:28:36.109Z,70.08
2023-05-16T02:31:11.823Z,69.52
2023-05-16T02:33:40.963Z,70.00
2023-05-16T02:36:10.629Z,70.03
2023-05-16T02:38:38.688Z,69.84
2023-05-16T02:41:07.591Z,69.86
2023-05-16T02:43:37.821Z,70.04
2023-05-16T02:46:27.543Z,69.34
2023-05-16T02:48:57.312Z,69.64
2023-05-16T02:51:28.186Z,69.56
2023-05-16T02:54:08.123Z,70.11
2023-05-16T02:56:37.159Z,70.46
2023-05-16T02:59:08.105Z,70.31
2023-05-16T03:01:36.689Z,69.80
2023-05-16T03:04:06.600Z,69.99
2023-05-16T03:06:34.909Z,70.61
2023-05-16T03:09:03.226Z,70.74
2023-05-16T03:11:37.341Z,70.36
2023-05-16T03:14:14.584Z,70.06
2023-05-16T03:16:45.747Z,70.17
2023-05-16T03:19:14.022Z,69.86
2023-05-16T03:21:42.291Z,69.81
2023-05-16T03:24:11.155Z,69.77
2023-05-16T03:26:42.736Z,70.54
2023-05-16T03:29:20.848Z,70.42
2023-05-16T03:31:50.281Z,70.55
2023-05-16T03:34:19.791Z,70.51
2023-05-16T03:36:51.012Z,70.55
2023-05-16T03:39:19.684Z,70.72
2023-05-16T03:41:47.793Z,70.16
2023-05-16T03:44:18.602Z,69.89
2023-05-16T03:46:50.909Z,69.88
2023-05-16T03:49:49.151Z,70.43
2023-05-16T03:52:22.088Z,70.05
2023-05-16T03:54:53.712Z,69.95
2023-05-16T03:57:22.387Z,69.95
2023-05-16T03:59:51.858Z,69.90
2023-05-16T04:02:23.710Z,69.84
2023-05-16T04:05:12.138Z,69.44
2023-05-16T04:07:41.018Z,69.17
2023-05-16T04:10:11.017Z,69.05
2023-05-16T04:12:40.268Z,68.79
2023-05-16T04:15:10.632Z,68.75
2023-05-16T04:17:42.007Z,68.76
2023-05-16T04:20:12.147Z,68.38
2023-05-16T04:22:40.293Z,68.40
2023-05-16T04:25:12.031Z,67.94
2023-05-16T04:27:40.040Z,67.87
2023-05-16T04:30:10.879Z,67.94
2023-05-16T04:32:39.064Z,67.62
2023-05-16T04:35:08.728Z,67.90
2023-05-16T04:37:37.534Z,67.66
2023-05-16T04:40:07.162Z,67.32
2023-05-16T04:42:35.366Z,67.23
2023-05-16T04:45:06.244Z,66.97
2023-05-16T04:47:36.194Z,66.94
2023-05-16T04:50:06.100Z,66.72
2023-05-16T04:52:34.511Z,66.67
2023-05-16T04:55:05.141Z,66.35
2023-05-16T04:57:34.237Z,66.30
2023-05-16T05:00:12.166Z,66.13
2023-05-16T05:02:41.300Z,65.94
2023-05-16T05:05:11.418Z,65.79
2023-05-16T05:07:40.450Z,65.42
2023-05-16T05:10:14.874Z,65.25
2023-05-16T05:12:43.981Z,65.16
2023-05-16T05:15:13.345Z,65.23
2023-05-16T05:17:41.581Z,64.88
2023-05-16T05:20:11.980Z,64.42
2023-05-16T05:22:40.633Z,64.16
2023-05-16T05:25:11.778Z,64.04
2023-05-16T05:27:43.436Z,64.06
2023-05-16T05:30:15.517Z,64.02
2023-05-16T05:32:44.922Z,64.18
2023-05-16T05:35:15.588Z,64.09
2023-05-16T05:37:44.903Z,63.99
2023-05-16T05:40:18.524Z,63.97
2023-05-16T05:42:48.256Z,63.61
2023-05-16T05:45:18.800Z,63.60
2023-05-16T05:47:47.154Z,63.53
2023-05-16T05:50:17.120Z,63.31
2023-05-16T05:52:46.999Z,63.40
2023-05-16T05:55:15.873Z,63.33
2023-05-16T05:57:45.712Z,63.01
2023-05-16T06:00:14.911Z,62.62
2023-05-16T06:02:43.940Z,62.54
2023-05-16T06:05:12.721Z,62.18
2023-05-16T06:07:43.101Z,62.14
2023-05-16T06:10:18.768Z,61.70
2023-05-16T06:12:48.763Z,61.24
2023-05-16T06:15:29.451Z,60.77
2023-05-16T06:18:07.527Z,60.42
2023-05-16T06:20:36.468Z,60.22
2023-05-16T06:23:05.872Z,59.16
2023-05-16T06:25:37.584Z,58.72
2023-05-16T06:28:07.962Z,58.60
2023-05-16T06:30:37.265Z,57.89
2023-05-16T06:33:07.161Z,58.11
2023-05-16T06:35:37.016Z,57.78
2023-05-16T06:38:05.647Z,56.99
2023-05-16T06:40:34.242Z,56.58
2023-05-16T06:43:03.349Z,55.23
2023-05-16T06:45:44.599Z,54.73
2023-05-16T06:48:15.368Z,54.39
2023-05-16T06:50:48.421Z,53.25
2023-05-16T06:53:19.461Z,52.32
2023-05-16T06:55:52.519Z,52.36
2023-05-16T06:58:21.673Z,52.40
2023-05-16T07:00:50.775Z,51.43
2023-05-16T07:03:19.475Z,51.24
2023-05-16T07:05:50.903Z,50.89
2023-05-16T07:08:21.741Z,50.41
2023-05-16T07:10:50.200Z,50.81
2023-05-16T07:13:19.011Z,50.12
2023-05-16T07:15:47.112Z,49.12
2023-05-16T07:18:15.678Z,49.26
2023-05-16T07:20:43.789Z,48.57
2023-05-16T07:23:12.135Z,48.14
2023-05-16T07:25:42.121Z,47.62
2023-05-16T07:28:10.464Z,46.51
2023-05-16T07:30:38.512Z,45.51
2023-05-16T07:33:08.071Z,45.37
2023-05-16T07:35:36.446Z,45.03
2023-05-16T07:38:05.242Z,43.70
2023-05-16T07:40:33.531Z,44.43
2023-05-16T07:43:02.572Z,44.43
2023-05-16T07:45:31.084Z,42.58
2023-05-16T07:47:59.845Z,43.20
2023-05-16T07:50:28.524Z,43.55
2023-05-16T07:52:59.258Z,43.18
2023-05-16T07:55:28.322Z,42.96
2023-05-16T07:57:59.036Z,42.57
2023-05-16T08:00:30.197Z,42.72
2023-05-16T08:02:59.144Z,42.18
2023-05-16T08:05:28.147Z,42.25
2023-05-16T08:07:57.002Z,41.82
2023-05-16T08:10:25.798Z,42.31
2023-05-16T08:12:57.357Z,41.16
2023-05-16T08:15:36.593Z,40.75
2023-05-16T08:18:14.433Z,40.62
2023-05-16T08:20:42.994Z,40.92
2023-05-16T08:23:11.416Z,40.59
2023-05-16T08:25:43.728Z,40.88
2023-05-16T08:28:11.958Z,41.70
2023-05-16T08:30:46.425Z,41.84
2023-05-16T08:33:16.420Z,42.57
2023-05-16T08:35:45.361Z,42.13
2023-05-16T08:38:13.722Z,41.64
2023-05-16T08:40:43.526Z,41.30
2023-05-16T08:43:15.885Z,40.94
2023-05-16T08:45:45.622Z,41.26
2023-05-16T08:48:16.717Z,40.65
2023-05-16T08:50:45.219Z,39.08
2023-05-16T08:53:20.653Z,38.00
2023-05-16T08:55:51.066Z,38.15
2023-05-16T08:58:20.569Z,38.12
2023-05-16T09:00:48.863Z,37.32
2023-05-16T09:03:20.073Z,38.18
2023-05-16T09:05:58.242Z,37.60
2023-05-16T09:08:26.657Z,36.69
2023-05-16T09:10:55.077Z,36.76
2023-05-16T09:13:25.893Z,37.18
2023-05-16T09:16:18.629Z,37.08
2023-05-16T09:18:58.731Z,36.72
2023-05-16T09:21:29.534Z,35.72
2023-05-16T09:24:04.501Z,35.64
2023-05-16T09:26:36.093Z,36.07
2023-05-16T09:29:31.513Z,36.30
2023-05-16T09:32:11.021Z,36.39
2023-05-16T09:34:45.275Z,36.24
2023-05-16T09:37:33.125Z,36.53
2023-05-16T10:11:48.783Z,34.21
2023-05-16T10:14:37.524Z,33.91
2023-05-16T10:17:37.016Z,32.41
2023-05-16T10:20:08.138Z,32.33
2023-05-16T10:22:46.641Z,32.21
2023-05-16T10:25:31.961Z,32.34
2023-05-16T10:28:00.544Z,32.45
2023-05-16T10:30:30.563Z,33.05
2023-05-16T10:33:08.959Z,33.46
2023-05-16T10:35:39.295Z,33.91
2023-05-16T10:38:18.091Z,33.62
2023-05-16T10:40:47.426Z,33.79
2023-05-16T10:43:27.940Z,33.91
2023-05-16T10:46:12.162Z,34.05
2023-05-16T10:48:44.235Z,33.57
2023-05-16T10:51:38.343Z,33.29
2023-05-16T10:54:20.006Z,33.13
2023-05-16T10:56:57.402Z,32.68
2023-05-16T10:59:28.150Z,32.55
2023-05-16T11:02:05.711Z,32.22
2023-05-16T11:04:50.316Z,31.49
2023-05-16T11:07:21.078Z,31.68
2023-05-16T11:10:11.355Z,31.61
2023-05-16T11:12:54.890Z,32.29
2023-05-16T11:15:28.781Z,32.92
2023-05-16T11:18:25.935Z,32.64
2023-05-16T11:21:03.999Z,32.23
2023-05-16T11:23:32.683Z,32.04
2023-05-16T11:26:05.889Z,32.19
2023-05-16T11:28:34.118Z,32.04
2023-05-16T11:31:15.665Z,30.95
2023-05-16T11:33:48.166Z,31.51
2023-05-16T11:36:21.463Z,32.02
2023-05-16T11:38:50.398Z,32.20
2023-05-16T11:41:20.492Z,32.48
2023-05-16T11:43:48.610Z,33.11
2023-05-16T11:46:19.884Z,32.95
2023-05-16T11:48:56.523Z,32.69
2023-05-16T11:51:26.368Z,32.23
2023-05-16T11:54:16.986Z,32.20
2023-05-16T11:56:46.211Z,31.91
2023-05-16T11:59:18.102Z,31.34
2023-05-16T12:01:50.055Z,31.47
2023-05-16T12:04:21.289Z,31.02
2023-05-16T12:07:05.507Z,30.38
2023-05-16T12:10:20.665Z,30.51
2023-05-16T12:13:11.613Z,30.63
2023-05-16T13:34:35.320Z,33.02
2023-05-16T13:37:06.840Z,32.88
2023-05-16T13:39:41.360Z,32.77
2023-05-16T13:42:09.729Z,32.38
2023-05-16T13:45:00.856Z,32.43
2023-05-16T13:47:57.191Z,32.57
2023-05-16T13:50:33.989Z,32.14
2023-05-16T13:53:14.956Z,31.73
2023-05-16T13:56:22.172Z,32.26
2023-05-16T13:59:07.321Z,32.19
2023-05-16T14:01:38.976Z,31.78
2023-05-16T16:32:50.302Z,47.77
2023-05-16T16:36:04.815Z,48.01
2023-05-16T16:39:01.801Z,48.59
2023-05-16T16:44:35.970Z,49.77
2023-05-16T16:47:06.075Z,49.88
2023-05-16T16:49:36.022Z,50.26
2023-05-16T16:52:06.245Z,50.59
2023-05-16T16:54:36.236Z,50.89
2023-05-16T16:57:30.075Z,51.23
2023-05-16T17:00:05.050Z,51.17
2023-05-16T17:02:34.862Z,51.44
2023-05-16T17:05:14.142Z,51.91
2023-05-16T17:07:43.350Z,51.94
2023-05-16T17:10:12.282Z,52.23
2023-05-16T17:12:56.391Z,52.32
2023-05-16T17:15:31.010Z,52.37
2023-05-16T17:18:07.008Z,52.50
2023-05-16T17:20:47.357Z,52.76
2023-05-16T17:23:36.766Z,52.62
2023-05-16T17:32:33.785Z,53.72
2023-05-16T17:35:13.488Z,54.20
2023-05-16T17:38:29.034Z,54.30
2023-05-16T17:40:58.505Z,54.77
2023-05-16T17:43:51.325Z,54.90
2023-05-16T17:46:21.069Z,55.04
2023-05-16T17:48:56.808Z,55.65
2023-05-16T17:51:26.613Z,56.12
2023-05-16T17:54:09.896Z,56.38
2023-05-16T17:56:57.675Z,56.68
2023-05-16T18:00:31.781Z,57.01
2023-05-16T18:03:56.660Z,57.07
2023-05-16T18:06:35.047Z,57.42
2023-05-16T18:09:29.400Z,57.49
2023-05-16T18:12:06.976Z,57.40
2023-05-16T18:14:53.449Z,57.79
2023-05-16T18:17:25.722Z,57.90
2023-05-16T18:20:44.386Z,58.10
2023-05-16T18:24:15.270Z,58.33
2023-05-16T18:27:19.509Z,58.85
2023-05-16T18:29:50.689Z,58.67
2023-05-16T18:32:22.447Z,58.83
2023-05-16T18:34:59.435Z,59.29
2023-05-16T18:40:56.981Z,59.27
2023-05-16T18:44:11.775Z,59.36
2023-05-16T18:47:28.303Z,59.57
2023-05-16T18:50:34.652Z,60.12
2023-05-16T18:53:10.052Z,60.28
2023-05-16T18:56:17.356Z,60.14
2023-05-16T18:58:49.146Z,60.30
2023-05-16T19:01:34.302Z,60.56
2023-05-16T19:05:07.610Z,60.82
2023-05-16T19:07:56.755Z,60.91
2023-05-16T19:11:32.447Z,61.12
2023-05-16T19:21:28.864Z,61.75
2023-05-16T19:24:47.304Z,61.99
2023-05-16T19:27:38.292Z,62.20
2023-05-16T19:30:09.464Z,62.85
2023-05-16T19:33:04.480Z,62.86
2023-05-16T19:35:48.129Z,62.92
2023-05-16T19:43:43.637Z,63.51
2023-05-16T19:46:26.480Z,63.54
